createdAt,value
2019-03-29T00:00:54.239Z,79.69
2019-03-29T00:02:04.345Z,79.6
2019-03-29T00:03:14.264Z,80.16
2019-03-29T00:04:24.195Z,80.07
2019-03-29T00:05:34.707Z,80.45
2019-03-29T00:06:44.375Z,80.93
2019-03-29T00:07:54.299Z,81.02
2019-03-29T00:09:04.692Z,81.21
2019-03-29T00:10:14.375Z,81.3
2019-03-29T00:11:24.394Z,81.3
2019-03-29T00:12:34.313Z,81.21
2019-03-29T00:13:44.284Z,81.4
2019-03-29T00:14:55.168Z,81.12
2019-03-29T00:16:05.108Z,81.02
2019-03-29T00:17:14.778Z,80.93
2019-03-29T00:18:25.603Z,81.12
2019-03-29T00:19:35.614Z,80.83
2019-03-29T00:20:45.765Z,80.35
2019-03-29T00:21:56.410Z,80.74
2019-03-29T00:23:07.818Z,79.88
2019-03-29T00:24:17.755Z,79.97
2019-03-29T00:25:27.718Z,79.88
2019-03-29T00:26:38.312Z,80.45
2019-03-29T00:27:48.234Z,80.64
2019-03-29T00:28:58.209Z,80.55
2019-03-29T00:30:08.573Z,80.55
2019-03-29T00:31:18.494Z,81.21
2019-03-29T00:32:28.422Z,81.4
2019-03-29T00:33:39.362Z,81.68
2019-03-29T00:34:49.283Z,81.68
2019-03-29T00:35:59.855Z,81.49
2019-03-29T00:37:09.872Z,81.3
2019-03-29T00:38:20.801Z,81.21
2019-03-29T00:39:30.788Z,80.74
2019-03-29T00:40:40.825Z,80.93
2019-03-29T00:41:50.957Z,81.21
2019-03-29T00:43:00.931Z,80.74
2019-03-29T00:44:11.833Z,80.83
2019-03-29T00:45:21.782Z,80.83
2019-03-29T00:46:31.818Z,80.55
2019-03-29T00:47:42.979Z,80.74
2019-03-29T00:48:52.900Z,80.45
2019-03-29T00:50:02.819Z,79.97
2019-03-29T00:51:12.907Z,80.07
2019-03-29T00:52:22.835Z,80.07
2019-03-29T00:53:32.755Z,79.88
2019-03-29T00:54:43.413Z,80.26
2019-03-29T00:55:53.083Z,80.07
2019-03-29T00:57:03.004Z,80.26
2019-03-29T00:58:12.929Z,79.79
2019-03-29T00:59:22.865Z,79.6
2019-03-29T01:00:34.066Z,79.6
2019-03-29T01:01:44.001Z,80.07
2019-03-29T01:02:53.922Z,79.88
2019-03-29T01:04:05.430Z,80.26
2019-03-29T01:05:15.360Z,79.69
2019-03-29T01:06:26.090Z,79.79
2019-03-29T01:07:36.031Z,79.69
2019-03-29T01:08:45.966Z,79.31
2019-03-29T01:09:56.241Z,79.22
2019-03-29T01:11:06.783Z,79.31
2019-03-29T01:12:17.649Z,79.41
2019-03-29T01:13:27.592Z,79.79
2019-03-29T01:14:37.542Z,79.88
2019-03-29T01:15:48.285Z,79.31
2019-03-29T01:16:58.204Z,80.07
2019-03-29T01:18:08.125Z,79.79
2019-03-29T01:19:19.425Z,79.5
2019-03-29T01:20:29.344Z,79.88
2019-03-29T01:21:39.961Z,79.5
2019-03-29T01:22:49.936Z,79.79
2019-03-29T01:24:00.686Z,79.69
2019-03-29T01:25:11.064Z,79.79
2019-03-29T01:26:20.985Z,79.88
2019-03-29T01:27:32.277Z,79.79
2019-03-29T01:28:42.199Z,79.88
2019-03-29T01:29:52.124Z,79.88
2019-03-29T01:31:02.295Z,79.88
2019-03-29T01:32:12.219Z,79.88
2019-03-29T01:33:22.201Z,79.97
2019-03-29T01:34:32.809Z,79.79
2019-03-29T01:35:42.493Z,80.64
2019-03-29T01:36:53.188Z,80.35
2019-03-29T01:38:03.713Z,80.26
2019-03-29T01:39:27.484Z,80.35
2019-03-29T01:40:37.728Z,80.16
2019-03-29T01:41:47.652Z,79.79
2019-03-29T01:42:58.464Z,80.64
2019-03-29T01:44:08.400Z,80.07
2019-03-29T01:45:18.333Z,79.88
2019-03-29T01:46:28.257Z,80.16
2019-03-29T01:47:38.204Z,80.16
2019-03-29T01:48:48.276Z,79.88
2019-03-29T01:49:59.041Z,79.97
2019-03-29T01:51:09.004Z,79.97
2019-03-29T01:52:19.286Z,79.88
2019-03-29T01:53:29.915Z,79.97
2019-03-29T01:54:40.726Z,79.88
2019-03-29T01:55:51.302Z,79.97
2019-03-29T01:57:01.227Z,79.97
2019-03-29T01:58:12.098Z,80.07
2019-03-29T01:59:22.017Z,79.69
2019-03-29T02:00:31.938Z,80.07
2019-03-29T02:01:41.991Z,79.97
2019-03-29T02:02:51.916Z,79.6
2019-03-29T02:04:01.836Z,79.92
2019-03-29T02:05:13.758Z,79.83
2019-03-29T02:06:23.696Z,80.26
2019-03-29T02:07:33.718Z,79.69
2019-03-29T02:08:43.667Z,79.35
2019-03-29T02:09:53.590Z,79.5
2019-03-29T02:11:04.442Z,79.73
2019-03-29T02:12:14.364Z,79.25
2019-03-29T02:13:24.129Z,79.69
2019-03-29T02:14:34.066Z,80.16
2019-03-29T02:15:43.983Z,79.6
2019-03-29T02:16:53.900Z,79.6
2019-03-29T02:18:03.883Z,80.07
2019-03-29T02:19:13.813Z,79.97
2019-03-29T02:20:23.891Z,79.97
2019-03-29T02:21:33.618Z,80.07
2019-03-29T02:22:43.546Z,80.07
2019-03-29T02:23:53.487Z,79.97
2019-03-29T02:25:04.638Z,79.97
2019-03-29T02:26:14.306Z,80.07
2019-03-29T02:27:24.238Z,80.35
2019-03-29T02:28:34.792Z,80.55
2019-03-29T02:29:44.746Z,79.97
2019-03-29T02:30:54.721Z,79.88
2019-03-29T02:32:05.303Z,80.02
2019-03-29T02:33:15.261Z,80.07
2019-03-29T02:34:26.319Z,79.97
2019-03-29T02:35:37.419Z,80.21
2019-03-29T02:36:48.540Z,80.11
2019-03-29T02:37:59.341Z,79.97
2019-03-29T02:39:09.282Z,80.16
2019-03-29T02:40:19.231Z,80.16
2019-03-29T02:41:30.362Z,80.26
2019-03-29T02:42:40.446Z,80.26
2019-03-29T02:43:50.936Z,79.79
2019-03-29T02:45:03.289Z,79.97
2019-03-29T02:46:13.408Z,79.97
2019-03-29T02:47:24.318Z,79.97
2019-03-29T02:48:34.350Z,80.16
2019-03-29T02:49:44.286Z,80.21
2019-03-29T02:50:54.027Z,80.26
2019-03-29T02:52:04.059Z,80.16
2019-03-29T02:53:14.000Z,79.97
2019-03-29T02:54:23.934Z,79.88
2019-03-29T02:55:33.877Z,79.88
2019-03-29T02:56:43.823Z,80.07
2019-03-29T02:57:53.783Z,79.97
2019-03-29T02:59:03.836Z,79.69
2019-03-29T03:00:13.515Z,80.16
2019-03-29T03:01:23.197Z,80.16
2019-03-29T03:02:33.163Z,79.88
2019-03-29T03:03:43.163Z,80.16
2019-03-29T03:04:53.101Z,80.64
2019-03-29T03:06:03.475Z,79.79
2019-03-29T03:07:13.180Z,80.07
2019-03-29T03:08:23.144Z,80.16
2019-03-29T03:09:37.980Z,80.26
2019-03-29T03:10:47.681Z,79.73
2019-03-29T03:11:57.737Z,79.73
2019-03-29T03:13:07.678Z,79.63
2019-03-29T03:14:17.529Z,79.25
2019-03-29T03:15:27.489Z,79.44
2019-03-29T03:16:37.418Z,79.22
2019-03-29T03:17:47.374Z,79.35
2019-03-29T03:18:57.333Z,79.54
2019-03-29T03:20:07.269Z,79.63
2019-03-29T03:21:22.176Z,79.25
2019-03-29T03:22:31.888Z,79.06
2019-03-29T03:23:41.923Z,79.16
2019-03-29T03:24:51.858Z,78.97
2019-03-29T03:26:01.921Z,78.88
2019-03-29T03:27:11.884Z,79.54
2019-03-29T03:28:21.837Z,78.97
2019-03-29T03:29:31.908Z,79.16
2019-03-29T03:30:41.875Z,78.88
2019-03-29T03:31:51.931Z,79.41
2019-03-29T03:33:02.004Z,79.5
2019-03-29T03:34:12.015Z,78.88
2019-03-29T03:35:22.080Z,78.97
2019-03-29T03:36:32.304Z,79.35
2019-03-29T03:37:42.351Z,79.25
2019-03-29T03:38:52.297Z,79.06
2019-03-29T03:40:02.231Z,78.59
2019-03-29T03:41:12.275Z,78.4
2019-03-29T03:42:22.225Z,78.59
2019-03-29T03:43:32.161Z,78.78
2019-03-29T03:44:42.125Z,78.5
2019-03-29T03:45:52.068Z,78.5
2019-03-29T03:47:02.103Z,78.4
2019-03-29T03:48:12.140Z,78.4
2019-03-29T03:49:22.078Z,78.4
2019-03-29T03:50:31.772Z,78.4
2019-03-29T03:51:41.774Z,78.4
2019-03-29T03:52:51.851Z,78.69
2019-03-29T03:54:01.816Z,78.5
2019-03-29T03:55:11.839Z,78.4
2019-03-29T03:56:21.822Z,78.78
2019-03-29T03:57:31.756Z,78.5
2019-03-29T03:58:41.850Z,78.4
2019-03-29T03:59:51.836Z,78.5
2019-03-29T04:01:01.815Z,78.5
2019-03-29T04:02:11.755Z,78.4
2019-03-29T04:03:21.706Z,78.69
2019-03-29T04:04:31.835Z,78.21
2019-03-29T04:05:45.362Z,78.97
2019-03-29T04:06:55.057Z,78.69
2019-03-29T04:08:05.021Z,78.11
2019-03-29T04:09:14.972Z,78.59
2019-03-29T04:10:24.913Z,78.5
2019-03-29T04:11:34.854Z,78.88
2019-03-29T04:12:44.568Z,78.5
2019-03-29T04:13:54.249Z,78.59
2019-03-29T04:15:04.199Z,78.69
2019-03-29T04:16:14.229Z,78.59
2019-03-29T04:17:24.213Z,78.4
2019-03-29T04:18:34.208Z,78.02
2019-03-29T04:19:44.143Z,78.21
2019-03-29T04:20:54.095Z,78.21
2019-03-29T04:22:04.234Z,78.4
2019-03-29T04:23:14.297Z,78.78
2019-03-29T04:24:24.267Z,78.88
2019-03-29T04:25:34.213Z,78.59
2019-03-29T04:26:44.183Z,78.69
2019-03-29T04:27:53.865Z,78.59
2019-03-29T04:29:07.527Z,78.21
2019-03-29T04:30:17.259Z,78.59
2019-03-29T04:31:27.190Z,77.64
2019-03-29T04:32:36.904Z,78.3
2019-03-29T04:33:46.951Z,77.83
2019-03-29T04:34:56.888Z,78.21
2019-03-29T04:36:06.885Z,78.3
2019-03-29T04:37:16.847Z,77.83
2019-03-29T04:38:26.775Z,78.11
2019-03-29T04:39:36.807Z,78.02
2019-03-29T04:40:46.745Z,78.59
2019-03-29T04:41:56.701Z,78.02
2019-03-29T04:43:06.660Z,78.4
2019-03-29T04:44:16.600Z,78.59
2019-03-29T04:45:26.626Z,78.21
2019-03-29T04:46:36.568Z,78.3
2019-03-29T04:47:46.492Z,78.4
2019-03-29T04:48:56.426Z,78.5
2019-03-29T04:50:06.359Z,78.5
2019-03-29T04:51:16.442Z,78.69
2019-03-29T04:52:26.394Z,78.59
2019-03-29T04:53:36.074Z,78.59
2019-03-29T04:54:45.994Z,78.69
2019-03-29T04:55:55.918Z,78.5
2019-03-29T04:57:05.843Z,78.59
2019-03-29T04:58:15.761Z,78.3
2019-03-29T04:59:25.680Z,78.69
2019-03-29T05:00:35.602Z,78.69
2019-03-29T05:01:45.536Z,78.88
2019-03-29T05:02:55.461Z,78.5
2019-03-29T05:04:05.388Z,78.02
2019-03-29T05:05:15.313Z,78.02
2019-03-29T05:06:25.261Z,78.3
2019-03-29T05:07:36.969Z,78.21
2019-03-29T05:08:47.188Z,77.83
2019-03-29T05:09:57.121Z,77.55
2019-03-29T05:11:07.160Z,77.83
2019-03-29T05:12:17.097Z,78.02
2019-03-29T05:13:27.025Z,77.64
2019-03-29T05:14:36.959Z,77.83
2019-03-29T05:15:46.887Z,77.83
2019-03-29T05:16:56.812Z,77.92
2019-03-29T05:18:06.737Z,77.83
2019-03-29T05:19:16.661Z,77.92
2019-03-29T05:20:26.682Z,77.73
2019-03-29T05:21:36.608Z,78.11
2019-03-29T05:22:46.538Z,78.02
2019-03-29T05:23:56.471Z,77.55
2019-03-29T05:25:06.397Z,78.11
2019-03-29T05:26:16.420Z,78.02
2019-03-29T05:27:28.354Z,77.83
2019-03-29T05:28:38.276Z,78.59
2019-03-29T05:29:48.202Z,78.21
2019-03-29T05:30:58.130Z,78.02
2019-03-29T05:32:08.050Z,78.3
2019-03-29T05:33:17.973Z,78.11
2019-03-29T05:34:27.939Z,77.55
2019-03-29T05:35:37.963Z,77.64
2019-03-29T05:36:47.918Z,77.83
2019-03-29T05:38:01.365Z,77.73
2019-03-29T05:39:11.293Z,77.83
2019-03-29T05:40:34.215Z,77.83
2019-03-29T05:41:44.322Z,77.64
2019-03-29T05:42:54.244Z,77.64
2019-03-29T05:44:04.267Z,77.45
2019-03-29T05:45:14.188Z,77.83
2019-03-29T05:46:24.164Z,77.64
2019-03-29T05:47:34.159Z,77.45
2019-03-29T05:48:44.189Z,77.45
2019-03-29T05:49:54.108Z,77.45
2019-03-29T05:51:03.784Z,76.97
2019-03-29T05:52:13.713Z,77.64
2019-03-29T05:53:23.382Z,77.55
2019-03-29T05:54:33.409Z,77.26
2019-03-29T05:55:43.338Z,77.07
2019-03-29T05:56:55.981Z,77.45
2019-03-29T05:58:05.909Z,76.5
2019-03-29T05:59:15.834Z,76.21
2019-03-29T06:00:25.861Z,75.93
2019-03-29T06:01:35.798Z,75.84
2019-03-29T06:02:45.719Z,75.55
2019-03-29T06:03:55.646Z,75.84
2019-03-29T06:05:05.578Z,75.84
2019-03-29T06:06:15.510Z,76.31
2019-03-29T06:07:25.439Z,76.03
2019-03-29T06:08:35.360Z,76.31
2019-03-29T06:09:45.294Z,76.21
2019-03-29T06:10:55.220Z,75.84
2019-03-29T06:12:05.251Z,75.64
2019-03-29T06:13:15.175Z,75.55
2019-03-29T06:14:25.106Z,75.74
2019-03-29T06:15:35.031Z,75.55
2019-03-29T06:16:44.952Z,75.36
2019-03-29T06:17:54.933Z,75.74
2019-03-29T06:19:04.854Z,75.36
2019-03-29T06:20:14.778Z,75.55
2019-03-29T06:21:24.733Z,75.64
2019-03-29T06:22:34.667Z,75.07
2019-03-29T06:23:44.689Z,75.93
2019-03-29T06:24:54.623Z,75.74
2019-03-29T06:26:04.567Z,75.17
2019-03-29T06:27:14.517Z,75.26
2019-03-29T06:28:24.442Z,75.64
2019-03-29T06:29:37.499Z,75.17
2019-03-29T06:30:47.426Z,74.69
2019-03-29T06:31:57.345Z,75.26
2019-03-29T06:33:07.266Z,75.84
2019-03-29T06:34:17.190Z,75.17
2019-03-29T06:35:27.176Z,75.17
2019-03-29T06:36:37.108Z,75.84
2019-03-29T06:37:47.029Z,75.17
2019-03-29T06:38:56.961Z,75.55
2019-03-29T06:40:06.972Z,75.07
2019-03-29T06:41:16.998Z,74.98
2019-03-29T06:42:26.969Z,74.98
2019-03-29T06:43:36.896Z,75.17
2019-03-29T06:44:46.977Z,74.88
2019-03-29T06:45:56.903Z,74.51
2019-03-29T06:47:06.893Z,74.12
2019-03-29T06:48:16.813Z,74.22
2019-03-29T06:49:26.746Z,74.22
2019-03-29T06:50:36.493Z,74.03
2019-03-29T06:51:46.657Z,73.55
2019-03-29T06:52:56.635Z,73.69
2019-03-29T06:54:06.578Z,73.59
2019-03-29T06:55:16.515Z,73.18
2019-03-29T06:56:26.506Z,73.74
2019-03-29T06:57:36.465Z,73.18
2019-03-29T06:58:46.395Z,73.78
2019-03-29T06:59:56.316Z,72.83
2019-03-29T07:01:05.985Z,73.88
2019-03-29T07:02:15.904Z,73.59
2019-03-29T07:03:25.576Z,73.49
2019-03-29T07:04:35.603Z,73.59
2019-03-29T07:05:45.611Z,73.27
2019-03-29T07:06:55.546Z,73.93
2019-03-29T07:08:05.473Z,73.46
2019-03-29T07:09:15.399Z,73.74
2019-03-29T07:10:25.434Z,73.69
2019-03-29T07:11:35.374Z,73.46
2019-03-29T07:12:47.306Z,73.55
2019-03-29T07:14:00.586Z,73.65
2019-03-29T07:15:10.511Z,73.65
2019-03-29T07:16:20.435Z,73.55
2019-03-29T07:17:30.370Z,73.65
2019-03-29T07:18:40.304Z,73.65
2019-03-29T07:19:50.234Z,73.21
2019-03-29T07:21:00.156Z,73.55
2019-03-29T07:22:23.380Z,73.21
2019-03-29T07:23:33.306Z,73.3
2019-03-29T07:24:43.228Z,73.78
2019-03-29T07:25:56.187Z,73.3
2019-03-29T07:27:06.303Z,72.92
2019-03-29T07:28:16.402Z,72.92
2019-03-29T07:29:26.128Z,72.92
2019-03-29T07:30:36.053Z,72.64
2019-03-29T07:31:45.733Z,73.02
2019-03-29T07:32:58.459Z,72.92
2019-03-29T07:34:08.489Z,72.64
2019-03-29T07:35:18.432Z,72.83
2019-03-29T07:36:28.359Z,72.74
2019-03-29T07:37:38.284Z,72.35
2019-03-29T07:38:48.225Z,72.64
2019-03-29T07:39:57.992Z,72.83
2019-03-29T07:41:07.963Z,72.92
2019-03-29T07:42:17.932Z,73.02
2019-03-29T07:43:27.863Z,72.83
2019-03-29T07:44:37.872Z,72.92
2019-03-29T07:45:47.851Z,73.11
2019-03-29T07:46:57.780Z,72.45
2019-03-29T07:48:07.709Z,72.07
2019-03-29T07:49:17.639Z,72.07
2019-03-29T07:50:27.570Z,72.16
2019-03-29T07:51:37.518Z,72.55
2019-03-29T07:52:47.447Z,72.26
2019-03-29T07:53:57.399Z,72.64
2019-03-29T07:55:07.410Z,72.07
2019-03-29T07:56:17.088Z,72.16
2019-03-29T07:57:27.018Z,72.16
2019-03-29T07:58:36.695Z,71.5
2019-03-29T07:59:46.620Z,71.78
2019-03-29T08:00:58.052Z,72.26
2019-03-29T08:02:07.979Z,72.07
2019-03-29T08:03:20.982Z,72.16
2019-03-29T08:04:31.441Z,71.78
2019-03-29T08:05:41.364Z,71.88
2019-03-29T08:06:52.747Z,71.41
2019-03-29T08:08:02.705Z,71.78
2019-03-29T08:09:26.310Z,71.5
2019-03-29T08:10:38.207Z,71.88
2019-03-29T08:11:49.223Z,71.5
2019-03-29T08:13:00.531Z,70.83
2019-03-29T08:14:10.473Z,70.93
2019-03-29T08:15:22.534Z,70.49
2019-03-29T08:16:32.594Z,70.49
2019-03-29T08:17:42.598Z,70.87
2019-03-29T08:18:52.553Z,70.77
2019-03-29T08:20:43.459Z,70.77
2019-03-29T08:21:53.793Z,70.97
2019-03-29T08:23:05.571Z,70.58
2019-03-29T08:24:15.507Z,70.2
2019-03-29T08:25:25.433Z,70.2
2019-03-29T08:26:35.403Z,70.1
2019-03-29T08:27:45.345Z,69.44
2019-03-29T08:28:55.030Z,69.44
2019-03-29T08:30:04.968Z,70.01
2019-03-29T08:31:14.898Z,69.82
2019-03-29T08:32:24.610Z,69.54
2019-03-29T08:33:34.538Z,69.35
2019-03-29T08:34:44.465Z,69.44
2019-03-29T08:35:54.396Z,69.54
2019-03-29T08:37:04.330Z,69.35
2019-03-29T08:38:14.329Z,69.35
2019-03-29T08:39:30.564Z,69.54
2019-03-29T08:40:40.510Z,69.44
2019-03-29T08:42:02.671Z,69.35
2019-03-29T08:43:12.619Z,69.25
2019-03-29T08:44:22.659Z,69.06
2019-03-29T08:45:32.599Z,69.35
2019-03-29T08:46:42.557Z,69.29
2019-03-29T08:47:52.527Z,69.06
2019-03-29T08:49:02.462Z,69.29
2019-03-29T08:50:12.393Z,68.4
2019-03-29T08:51:22.210Z,68.81
2019-03-29T08:52:32.159Z,68.81
2019-03-29T08:53:42.090Z,68.52
2019-03-29T08:54:53.791Z,68.9
2019-03-29T08:56:03.829Z,68.05
2019-03-29T08:57:13.780Z,68.15
2019-03-29T08:58:23.716Z,67.76
2019-03-29T08:59:33.648Z,67.67
2019-03-29T09:00:43.578Z,68.24
2019-03-29T09:01:53.509Z,68.24
2019-03-29T09:03:03.469Z,68.24
2019-03-29T09:04:13.416Z,68.24
2019-03-29T09:05:26.847Z,67.76
2019-03-29T09:06:36.939Z,68.43
2019-03-29T09:08:00.725Z,68.24
2019-03-29T09:09:12.063Z,68.52
2019-03-29T09:10:22.225Z,68.43
2019-03-29T09:11:32.252Z,68.33
2019-03-29T09:12:44.224Z,68.52
2019-03-29T09:13:54.223Z,68.62
2019-03-29T09:15:06.396Z,68.52
2019-03-29T09:16:16.373Z,68.24
2019-03-29T09:17:26.425Z,68.33
2019-03-29T09:18:36.361Z,69.19
2019-03-29T09:19:46.307Z,69.06
2019-03-29T09:20:56.229Z,68.9
2019-03-29T09:22:06.185Z,68.43
2019-03-29T09:23:16.123Z,68.24
2019-03-29T09:24:26.061Z,67.76
2019-03-29T09:25:35.736Z,67.95
2019-03-29T09:26:48.112Z,67.76
2019-03-29T09:27:58.058Z,67.47
2019-03-29T09:29:08.040Z,67.29
2019-03-29T09:30:17.995Z,68.05
2019-03-29T09:31:27.934Z,67.67
2019-03-29T09:32:37.866Z,67.29
2019-03-29T09:33:47.814Z,67
2019-03-29T09:35:01.339Z,67.1
2019-03-29T09:36:11.272Z,67.38
2019-03-29T09:37:21.280Z,66.91
2019-03-29T09:38:31.206Z,66.24
2019-03-29T09:39:41.135Z,66.14
2019-03-29T09:41:01.104Z,66.33
2019-03-29T09:42:12.343Z,66.33
2019-03-29T09:43:36.069Z,65.95
2019-03-29T09:44:45.994Z,65.95
2019-03-29T09:45:55.976Z,66.24
2019-03-29T09:47:08.361Z,65.86
2019-03-29T09:48:18.299Z,65.29
2019-03-29T09:49:28.228Z,65.19
2019-03-29T09:50:38.179Z,65.48
2019-03-29T09:51:54.045Z,65.95
2019-03-29T09:53:04.244Z,65.58
2019-03-29T09:54:14.171Z,65.19
2019-03-29T09:55:27.693Z,65.19
2019-03-29T09:56:41.785Z,65.03
2019-03-29T09:57:53.605Z,65.51
2019-03-29T09:59:03.547Z,65.67
2019-03-29T10:00:25.180Z,65.58
2019-03-29T10:01:35.407Z,65.86
2019-03-29T10:02:45.469Z,65.7
2019-03-29T10:03:55.672Z,65.42
2019-03-29T10:05:05.609Z,65.23
2019-03-29T10:06:17.774Z,65.51
2019-03-29T10:07:27.710Z,64.84
2019-03-29T10:08:37.743Z,65.32
2019-03-29T10:09:47.671Z,65.13
2019-03-29T10:10:57.612Z,65.13
2019-03-29T10:12:07.547Z,65.32
2019-03-29T10:13:17.470Z,65.51
2019-03-29T10:14:27.403Z,65.32
2019-03-29T10:15:40.984Z,65.99
2019-03-29T10:16:54.081Z,65.95
2019-03-29T10:18:04.015Z,66.37
2019-03-29T10:19:13.974Z,66.24
2019-03-29T10:20:23.954Z,66.08
2019-03-29T10:21:36.602Z,65.67
2019-03-29T10:22:46.543Z,65.48
2019-03-29T10:23:56.556Z,65.23
2019-03-29T10:25:20.717Z,65.7
2019-03-29T10:26:30.639Z,65.03
2019-03-29T10:27:40.653Z,65.23
2019-03-29T10:28:50.582Z,65.23
2019-03-29T10:30:00.377Z,65.42
2019-03-29T10:31:10.328Z,64.56
2019-03-29T10:32:34.088Z,64.18
2019-03-29T10:33:43.763Z,64.37
2019-03-29T10:34:56.641Z,63.99
2019-03-29T10:36:06.578Z,63.54
2019-03-29T10:37:16.561Z,62.88
2019-03-29T10:38:26.485Z,62.78
2019-03-29T10:39:38.254Z,62.88
2019-03-29T10:40:48.188Z,62.88
2019-03-29T10:41:58.124Z,62.88
2019-03-29T10:43:08.061Z,62.88
2019-03-29T10:44:17.986Z,62.78
2019-03-29T10:45:27.939Z,62.78
2019-03-29T10:46:44.700Z,62.4
2019-03-29T10:47:54.732Z,61.83
2019-03-29T10:49:04.791Z,61.45
2019-03-29T10:50:14.732Z,61.19
2019-03-29T10:51:24.680Z,60.59
2019-03-29T10:52:34.619Z,59.86
2019-03-29T10:53:44.596Z,59.09
2019-03-29T10:54:54.561Z,58.91
2019-03-29T10:56:04.501Z,59.28
2019-03-29T10:57:14.456Z,59.28
2019-03-29T10:58:24.394Z,58.46
2019-03-29T10:59:34.086Z,58.36
2019-03-29T11:00:44.010Z,58.65
2019-03-29T11:01:53.992Z,58.55
2019-03-29T11:03:03.948Z,58.36
2019-03-29T11:04:13.888Z,57.72
2019-03-29T11:05:23.829Z,56.58
2019-03-29T11:06:33.774Z,56.29
2019-03-29T11:07:43.755Z,56.38
2019-03-29T11:08:53.682Z,55.72
2019-03-29T11:10:03.665Z,55.62
2019-03-29T11:11:13.695Z,55.82
2019-03-29T11:12:23.634Z,55.08
2019-03-29T11:13:33.562Z,54.6
2019-03-29T11:14:46.355Z,53.55
2019-03-29T11:15:56.284Z,53.29
2019-03-29T11:17:06.215Z,52.08
2019-03-29T11:18:16.159Z,50.35
2019-03-29T11:19:26.099Z,50.45
2019-03-29T11:20:36.035Z,49.62
2019-03-29T11:21:45.968Z,49.23
2019-03-29T11:22:55.649Z,48.88
2019-03-29T11:24:08.942Z,48.88
2019-03-29T11:25:19.103Z,47.94
2019-03-29T11:26:29.039Z,48.23
2019-03-29T11:27:38.977Z,47.94
2019-03-29T11:28:48.960Z,46.34
2019-03-29T11:29:58.911Z,45.67
2019-03-29T11:31:08.852Z,45.19
2019-03-29T11:32:18.786Z,44.71
2019-03-29T11:33:28.717Z,44.16
2019-03-29T11:34:38.666Z,44.13
2019-03-29T11:35:48.608Z,44.9
2019-03-29T11:36:58.548Z,45.38
2019-03-29T11:38:08.235Z,45.19
2019-03-29T11:39:18.170Z,44.9
2019-03-29T11:40:30.327Z,44.81
2019-03-29T11:41:40.360Z,44.62
2019-03-29T11:42:50.295Z,44.81
2019-03-29T11:44:00.305Z,45.26
2019-03-29T11:45:10.243Z,44.69
2019-03-29T11:46:20.236Z,44.88
2019-03-29T11:47:30.169Z,44.5
2019-03-29T11:48:40.106Z,44.5
2019-03-29T11:49:52.707Z,44.98
2019-03-29T11:51:03.069Z,44.04
2019-03-29T11:52:26.787Z,44.43
2019-03-29T11:53:39.139Z,43.85
2019-03-29T11:54:48.837Z,44.43
2019-03-29T11:55:58.787Z,44.43
2019-03-29T11:57:08.751Z,43.56
2019-03-29T11:58:18.689Z,43.66
2019-03-29T11:59:28.624Z,43.37
2019-03-29T12:00:38.618Z,43.27
2019-03-29T12:01:48.557Z,42.99
2019-03-29T12:02:58.594Z,43.18
2019-03-29T12:04:11.904Z,42.99
2019-03-29T12:05:21.847Z,43.08
2019-03-29T12:06:31.795Z,42.82
2019-03-29T12:07:41.735Z,42.63
2019-03-29T12:08:51.680Z,41.77
2019-03-29T12:10:04.686Z,41.77
2019-03-29T12:11:14.644Z,41.78
2019-03-29T12:12:27.432Z,41.31
2019-03-29T12:13:43.867Z,41.6
2019-03-29T12:14:53.829Z,41.5
2019-03-29T12:16:03.770Z,41.5
2019-03-29T12:17:13.714Z,41.11
2019-03-29T12:18:23.664Z,41.11
2019-03-29T12:19:33.650Z,41.02
2019-03-29T12:20:43.595Z,41.11
2019-03-29T12:21:57.198Z,41.11
2019-03-29T12:23:06.885Z,41.38
2019-03-29T12:24:16.828Z,41.48
2019-03-29T12:25:26.765Z,41.09
2019-03-29T12:26:36.809Z,41
2019-03-29T12:27:46.745Z,41.48
2019-03-29T12:28:56.680Z,41.57
2019-03-29T12:30:06.620Z,41.38
2019-03-29T12:31:33.485Z,41.09
2019-03-29T12:32:43.425Z,41.09
2019-03-29T12:33:53.368Z,41.19
2019-03-29T12:35:03.420Z,40.71
2019-03-29T12:36:15.390Z,40.61
2019-03-29T12:37:25.386Z,40.54
2019-03-29T12:38:35.324Z,40.42
2019-03-29T12:39:45.264Z,40.73
2019-03-29T12:40:55.233Z,40.54
2019-03-29T12:42:05.187Z,39.7
2019-03-29T12:43:15.418Z,39.03
2019-03-29T12:44:25.358Z,39.68
2019-03-29T12:45:35.302Z,39.77
2019-03-29T12:46:45.245Z,40.54
2019-03-29T12:47:55.198Z,40.16
2019-03-29T12:49:05.141Z,40.54
2019-03-29T12:50:15.078Z,39.58
2019-03-29T12:51:25.022Z,39.39
2019-03-29T12:52:34.969Z,39.41
2019-03-29T12:53:44.663Z,39.31
2019-03-29T12:54:54.662Z,39.5
2019-03-29T12:56:04.605Z,39.5
2019-03-29T12:57:14.544Z,39.33
2019-03-29T12:58:24.493Z,38.18
2019-03-29T12:59:35.548Z,38.09
2019-03-29T13:00:45.489Z,38.09
2019-03-29T13:01:55.462Z,38.18
2019-03-29T13:03:05.426Z,38.93
2019-03-29T13:04:15.125Z,38.83
2019-03-29T13:05:25.111Z,38.83
2019-03-29T13:06:35.109Z,38.34
2019-03-29T13:07:45.048Z,38.26
2019-03-29T13:08:58.319Z,39.41
2019-03-29T13:10:08.259Z,38.66
2019-03-29T13:11:18.278Z,38.28
2019-03-29T13:12:28.269Z,38.64
2019-03-29T13:13:38.242Z,39.2
2019-03-29T13:14:48.210Z,38.62
2019-03-29T13:15:58.189Z,38.62
2019-03-29T13:17:08.139Z,38.93
2019-03-29T13:18:17.894Z,38.81
2019-03-29T13:19:27.915Z,39.01
2019-03-29T13:20:37.857Z,39.1
2019-03-29T13:21:47.797Z,38.81
2019-03-29T13:22:57.786Z,39.1
2019-03-29T13:24:07.807Z,39.29
2019-03-29T13:25:21.121Z,39.2
2019-03-29T13:26:31.062Z,39.39
2019-03-29T13:27:40.999Z,39.68
2019-03-29T13:28:50.936Z,39.77
2019-03-29T13:30:00.675Z,40.33
2019-03-29T13:31:10.627Z,40.61
2019-03-29T13:32:20.606Z,40.42
2019-03-29T13:33:30.554Z,40.52
2019-03-29T13:34:40.263Z,41.65
2019-03-29T13:35:53.886Z,42.03
2019-03-29T13:37:03.830Z,42.3
2019-03-29T13:38:13.770Z,42.58
2019-03-29T13:39:25.843Z,42.87
2019-03-29T13:40:35.792Z,43.06
2019-03-29T13:41:45.823Z,43.35
2019-03-29T13:42:55.763Z,43.26
2019-03-29T13:44:05.710Z,43.06
2019-03-29T13:45:31.250Z,43.06
2019-03-29T13:46:41.193Z,42.8
2019-03-29T13:47:51.189Z,42.9
2019-03-29T13:49:01.127Z,43.06
2019-03-29T13:50:11.266Z,43.44
2019-03-29T13:51:21.210Z,44
2019-03-29T13:52:33.689Z,43.71
2019-03-29T13:53:43.642Z,44.29
2019-03-29T13:54:53.578Z,44.48
2019-03-29T13:56:03.603Z,44.67
2019-03-29T13:57:13.547Z,45.22
2019-03-29T13:58:23.486Z,44.93
2019-03-29T13:59:34.470Z,45.31
2019-03-29T14:00:44.152Z,45.6
2019-03-29T14:01:54.093Z,45.6
2019-03-29T14:03:04.035Z,45.51
2019-03-29T14:04:14.020Z,46.37
2019-03-29T14:05:23.951Z,46.08
2019-03-29T14:06:33.883Z,46.56
2019-03-29T14:07:43.821Z,46.53
2019-03-29T14:08:53.756Z,46.34
2019-03-29T14:10:03.694Z,46.63
2019-03-29T14:11:13.676Z,46.82
2019-03-29T14:12:23.638Z,46.82
2019-03-29T14:13:33.321Z,46.25
2019-03-29T14:14:43.262Z,46.27
2019-03-29T14:15:53.299Z,45.12
2019-03-29T14:17:03.245Z,44.19
2019-03-29T14:18:13.186Z,43.9
2019-03-29T14:19:25.667Z,43.54
2019-03-29T14:20:35.842Z,44.31
2019-03-29T14:21:45.570Z,43.35
2019-03-29T14:22:55.511Z,43.63
2019-03-29T14:24:05.201Z,43.26
2019-03-29T14:25:15.139Z,43.44
2019-03-29T14:26:25.137Z,43.26
2019-03-29T14:27:34.832Z,42.87
2019-03-29T14:28:44.762Z,43.16
2019-03-29T14:30:06.727Z,43.16
2019-03-29T14:31:16.665Z,42.99
2019-03-29T14:32:26.605Z,42.99
2019-03-29T14:33:36.544Z,42.22
2019-03-29T14:34:46.488Z,42.05
2019-03-29T14:35:56.424Z,41.19
2019-03-29T14:37:06.368Z,40.44
2019-03-29T14:38:16.357Z,40.35
2019-03-29T14:39:26.293Z,39.97
2019-03-29T14:40:36.245Z,40.25
2019-03-29T14:41:46.189Z,40.35
2019-03-29T14:42:56.127Z,39.87
2019-03-29T14:44:06.172Z,39.31
2019-03-29T14:45:16.107Z,38.09
2019-03-29T14:46:26.046Z,38.95
2019-03-29T14:47:45.412Z,38.66
2019-03-29T14:48:55.352Z,38.66
2019-03-29T14:50:05.428Z,38.37
2019-03-29T14:51:15.367Z,38.18
2019-03-29T14:52:25.301Z,38.16
2019-03-29T14:53:35.295Z,38.93
2019-03-29T14:54:45.228Z,39.31
2019-03-29T14:55:55.219Z,39.68
2019-03-29T14:57:07.934Z,39.41
2019-03-29T14:58:17.875Z,39.12
2019-03-29T14:59:27.813Z,38.76
2019-03-29T15:00:37.765Z,38.56
2019-03-29T15:01:51.167Z,38.85
2019-03-29T15:03:01.113Z,37.89
2019-03-29T15:04:10.808Z,38.66
2019-03-29T15:05:20.762Z,38.49
2019-03-29T15:06:30.697Z,37.62
2019-03-29T15:07:40.637Z,37.43
2019-03-29T15:08:52.310Z,37.34
2019-03-29T15:10:02.257Z,36.97
2019-03-29T15:11:24.492Z,36.68
2019-03-29T15:12:34.440Z,36.97